createdAt,value
2022-08-02T00:01:25.955Z,100956.66
2022-08-02T00:03:54.689Z,100958.59
2022-08-02T00:06:23.836Z,100953.41
2022-08-02T00:08:53.910Z,100963.34
2022-08-02T00:11:22.696Z,100954.47
2022-08-02T00:13:51.603Z,100951.88
2022-08-02T00:16:20.382Z,100953.81
2022-08-02T00:19:08.175Z,100946.88
2022-08-02T00:21:37.104Z,100949.63
2022-08-02T00:24:28.601Z,100946.16
2022-08-02T00:26:55.260Z,100951.78
2022-08-02T00:29:23.991Z,100953.72
2022-08-02T00:31:52.768Z,100959.19
2022-08-02T00:34:29.839Z,100956.47
2022-08-02T00:37:00.180Z,100954.75
2022-08-02T00:39:34.119Z,100950.31
2022-08-02T00:42:04.899Z,100956.69
2022-08-02T00:44:33.850Z,100961.03
2022-08-02T00:47:02.745Z,100962.75
2022-08-02T00:49:33.305Z,100968.06
2022-08-02T00:52:02.317Z,100968.00
2022-08-02T00:54:31.066Z,100968.84
2022-08-02T00:56:59.827Z,100968.00
2022-08-02T00:59:28.771Z,100967.88
2022-08-02T01:01:58.425Z,100976.00
2022-08-02T01:04:31.448Z,100984.84
2022-08-02T01:07:12.250Z,100970.41
2022-08-02T01:09:43.072Z,100962.31
2022-08-02T01:12:13.035Z,100968.56
2022-08-02T01:14:43.034Z,100962.19
2022-08-02T01:17:13.296Z,100963.91
2022-08-02T01:19:48.460Z,100955.75
2022-08-02T01:22:58.518Z,100952.06
2022-08-02T01:25:27.011Z,100960.06
2022-08-02T01:28:16.402Z,100960.94
2022-08-02T01:30:49.125Z,100957.28
2022-08-02T01:33:22.303Z,100952.66
2022-08-02T01:35:54.102Z,100956.13
2022-08-02T01:38:25.272Z,100965.09
2022-08-02T01:40:55.813Z,100955.13
2022-08-02T01:43:26.800Z,100957.84
2022-08-02T01:45:57.660Z,100960.53
2022-08-02T01:48:27.644Z,100965.94
2022-08-02T01:50:57.067Z,100965.00
2022-08-02T01:53:28.123Z,100967.69
2022-08-02T01:55:59.301Z,100965.09
2022-08-02T01:58:29.991Z,100967.03
2022-08-02T02:01:01.134Z,100971.56
2022-08-02T02:03:30.687Z,100966.34
2022-08-02T02:06:04.185Z,100971.84
2022-08-02T02:08:35.130Z,100972.78
2022-08-02T02:12:06.215Z,100974.72
2022-08-02T02:13:56.218Z,100982.94
2022-08-02T02:16:27.369Z,100987.56
2022-08-02T02:18:56.434Z,100985.81
2022-08-02T02:21:25.283Z,100988.63
2022-08-02T02:23:54.181Z,100991.41
2022-08-02T02:26:29.622Z,100991.53
2022-08-02T02:29:02.514Z,100988.06
2022-08-02T02:31:35.631Z,100982.81
2022-08-02T02:34:06.973Z,100986.47
2022-08-02T02:36:35.985Z,100993.81
2022-08-02T02:39:11.611Z,100986.69
2022-08-02T02:41:43.612Z,100991.31
2022-08-02T02:44:14.576Z,100998.53
2022-08-02T02:46:45.476Z,100996.88
2022-08-02T02:49:16.317Z,100992.53
2022-08-02T02:51:45.523Z,100995.34
2022-08-02T02:54:31.069Z,100991.75
2022-08-02T02:57:04.482Z,100991.97
2022-08-02T02:59:33.925Z,101001.00
2022-08-02T03:02:05.747Z,101002.06
2022-08-02T03:04:55.998Z,101007.47
2022-08-02T03:07:26.072Z,101012.88
2022-08-02T03:09:55.487Z,101004.88
2022-08-02T03:12:28.843Z,101003.16
2022-08-02T03:14:59.750Z,101017.59
2022-08-02T03:17:39.795Z,101005.06
2022-08-02T03:20:10.850Z,101011.41
2022-08-02T03:22:39.721Z,101004.38
2022-08-02T03:25:09.081Z,101011.53
2022-08-02T03:27:38.066Z,101010.63
2022-08-02T03:30:08.030Z,101016.03
2022-08-02T03:32:37.626Z,101013.34
2022-08-02T03:35:09.393Z,101008.91
2022-08-02T03:37:38.692Z,101013.44
2022-08-02T03:40:09.840Z,101011.53
2022-08-02T03:42:40.192Z,101011.53
2022-08-02T03:45:10.188Z,101019.50
2022-08-02T03:47:39.344Z,101019.34
2022-08-02T03:50:12.432Z,101020.91
2022-08-02T03:52:42.832Z,101026.09
2022-08-02T03:55:12.647Z,101023.31
2022-08-02T03:57:42.295Z,101028.50
2022-08-02T04:00:13.108Z,101029.13
2022-08-02T04:02:42.563Z,101028.06
2022-08-02T04:05:12.714Z,101038.59
2022-08-02T04:08:33.315Z,101035.69
2022-08-02T04:10:30.532Z,101040.13
2022-08-02T04:12:59.721Z,101035.22
2022-08-02T04:15:28.612Z,101030.41
2022-08-02T04:18:01.120Z,101031.00
2022-08-02T04:20:32.681Z,101031.47
2022-08-02T04:23:02.678Z,101032.16
2022-08-02T04:25:36.457Z,101034.47
2022-08-02T04:28:17.158Z,101037.88
2022-08-02T04:30:47.984Z,101048.34
2022-08-02T04:33:17.715Z,101046.34
2022-08-02T04:35:48.000Z,101051.38
2022-08-02T04:38:17.274Z,101058.13
2022-08-02T04:40:53.055Z,101061.25
2022-08-02T04:43:22.109Z,101065.28
2022-08-02T04:45:52.619Z,101068.56
2022-08-02T04:48:21.471Z,101062.00
2022-08-02T04:50:52.334Z,101066.16
2022-08-02T04:53:21.398Z,101063.22
2022-08-02T04:55:50.246Z,101065.53
2022-08-02T04:58:39.264Z,101067.94
2022-08-02T05:01:07.872Z,101073.06
2022-08-02T05:03:36.823Z,101080.13
2022-08-02T05:06:07.628Z,101083.38
2022-08-02T05:08:52.762Z,101084.84
2022-08-02T05:11:34.171Z,101095.25
2022-08-02T05:14:05.256Z,101083.81
2022-08-02T05:16:34.097Z,101095.00
2022-08-02T05:19:03.166Z,101091.13
2022-08-02T05:21:33.832Z,101090.72
2022-08-02T05:24:02.629Z,101097.50
2022-08-02T05:26:31.351Z,101099.78
2022-08-02T05:29:00.384Z,101110.22
2022-08-02T05:31:29.292Z,101107.19
2022-08-02T05:33:58.040Z,101108.59
2022-08-02T05:36:26.985Z,101110.16
2022-08-02T05:38:59.626Z,101117.00
2022-08-02T05:41:34.185Z,101129.25
2022-08-02T05:44:02.953Z,101122.75
2022-08-02T05:46:31.727Z,101131.44
2022-08-02T05:49:00.705Z,101125.81
2022-08-02T05:51:32.503Z,101126.47
2022-08-02T05:54:07.526Z,101122.59
2022-08-02T05:56:39.949Z,101124.88
2022-08-02T05:59:13.297Z,101124.56
2022-08-02T06:01:43.910Z,101130.63
2022-08-02T06:04:18.377Z,101128.66
2022-08-02T06:06:50.978Z,101133.00
2022-08-02T06:09:25.194Z,101127.28
2022-08-02T06:12:02.573Z,101127.81
2022-08-02T06:14:32.691Z,101132.63
2022-08-02T06:17:02.109Z,101136.66
2022-08-02T06:19:50.857Z,101138.06
2022-08-02T06:22:32.483Z,101139.47
2022-08-02T06:25:48.313Z,101134.81
2022-08-02T06:28:02.123Z,101142.72
2022-08-02T06:30:31.736Z,101137.97
2022-08-02T06:33:02.576Z,101138.59
2022-08-02T06:35:35.460Z,101144.56
2022-08-02T06:38:05.161Z,101149.66
2022-08-02T06:40:37.190Z,101155.50
2022-08-02T06:43:13.139Z,101160.41
2022-08-02T06:45:42.133Z,101151.94
2022-08-02T06:48:11.338Z,101156.28
2022-08-02T06:50:42.090Z,101162.34
2022-08-02T06:53:11.061Z,101164.72
2022-08-02T06:55:44.123Z,101160.13
2022-08-02T06:58:13.378Z,101159.94
2022-08-02T07:00:43.799Z,101167.09
2022-08-02T07:03:12.848Z,101154.28
2022-08-02T07:05:41.775Z,101162.19
2022-08-02T07:08:10.640Z,101163.84
2022-08-02T07:10:39.399Z,101168.19
2022-08-02T07:13:09.469Z,101177.09
2022-08-02T07:15:38.439Z,101182.28
2022-08-02T07:18:07.757Z,101174.06
2022-08-02T07:20:37.185Z,101179.22
2022-08-02T07:23:06.038Z,101181.63
2022-08-02T07:26:03.208Z,101187.47
2022-08-02T07:28:25.153Z,101181.69
2022-08-02T07:30:53.931Z,101191.16
2022-08-02T07:33:38.148Z,101193.28
2022-08-02T07:36:17.073Z,101191.94
2022-08-02T07:38:51.632Z,101188.78
2022-08-02T07:41:22.259Z,101189.28
2022-08-02T07:43:52.963Z,101185.13
2022-08-02T07:46:21.894Z,101195.66
2022-08-02T07:48:53.416Z,101189.88
2022-08-02T07:51:22.307Z,101195.75
2022-08-02T07:54:02.371Z,101204.28
2022-08-02T07:56:33.726Z,101206.66
2022-08-02T07:59:03.833Z,101204.59
2022-08-02T08:01:32.589Z,101208.06
2022-08-02T08:04:01.526Z,101198.69
2022-08-02T08:06:30.855Z,101193.88
2022-08-02T08:09:00.220Z,101197.31
2022-08-02T08:11:29.138Z,101191.78
2022-08-02T08:13:57.990Z,101183.38
2022-08-02T08:16:29.195Z,101197.50
2022-08-02T08:18:58.463Z,101186.38
2022-08-02T08:21:27.143Z,101193.28
2022-08-02T08:23:55.925Z,101200.34
2022-08-02T08:26:26.730Z,101194.78
2022-08-02T08:28:55.493Z,101197.41
2022-08-02T08:31:24.227Z,101198.28
2022-08-02T08:33:54.468Z,101204.34
2022-08-02T08:36:23.195Z,101198.53
2022-08-02T08:38:52.020Z,101200.78
2022-08-02T08:41:21.217Z,101210.06
2022-08-02T08:43:53.234Z,101206.13
2022-08-02T08:46:28.214Z,101215.59
2022-08-02T08:49:00.757Z,101198.88
2022-08-02T08:51:32.243Z,101198.63
2022-08-02T08:54:03.798Z,101198.38
2022-08-02T08:56:34.524Z,101201.59
2022-08-02T08:59:05.308Z,101202.22
2022-08-02T09:01:49.809Z,101206.44
2022-08-02T09:04:20.966Z,101205.19
2022-08-02T09:06:50.174Z,101203.09
2022-08-02T09:09:18.936Z,101212.75
2022-08-02T09:11:47.876Z,101208.78
2022-08-02T09:14:27.050Z,101212.00
2022-08-02T09:17:06.784Z,101210.63
2022-08-02T09:19:37.196Z,101219.31
2022-08-02T09:22:08.008Z,101211.88
2022-08-02T09:24:44.701Z,101210.75
2022-08-02T09:27:14.580Z,101208.63
2022-08-02T09:30:11.642Z,101215.69
2022-08-02T09:32:45.445Z,101204.56
2022-08-02T09:36:06.745Z,101201.69
2022-08-02T09:38:21.083Z,101202.34
2022-08-02T09:40:49.987Z,101211.88
2022-08-02T09:43:20.041Z,101203.31
2022-08-02T09:45:48.852Z,101208.38
2022-08-02T09:48:17.797Z,101214.31
2022-08-02T09:50:47.984Z,101211.22
2022-08-02T09:53:17.870Z,101201.63
2022-08-02T09:55:56.090Z,101205.84
2022-08-02T09:58:24.825Z,101204.47
2022-08-02T10:00:54.645Z,101199.75
2022-08-02T10:03:28.086Z,101196.75
2022-08-02T10:06:05.516Z,101200.09
2022-08-02T10:08:34.338Z,101191.78
2022-08-02T10:11:03.574Z,101187.06
2022-08-02T10:13:34.565Z,101187.66
2022-08-02T10:16:03.816Z,101187.41
2022-08-02T10:18:41.039Z,101186.00
2022-08-02T10:21:13.510Z,101194.81
2022-08-02T10:23:43.981Z,101191.69
2022-08-02T10:26:17.395Z,101188.72
2022-08-02T10:28:47.821Z,101181.91
2022-08-02T10:31:20.322Z,101181.34
2022-08-02T10:33:50.594Z,101180.81
2022-08-02T10:36:23.664Z,101180.13
2022-08-02T10:38:52.436Z,101180.34
2022-08-02T10:41:36.368Z,101179.81
2022-08-02T10:44:05.878Z,101171.09
2022-08-02T10:46:35.787Z,101176.97
2022-08-02T10:52:08.100Z,101178.66
2022-08-02T10:54:38.362Z,101185.19
2022-08-02T10:57:20.746Z,101189.97
2022-08-02T10:59:50.596Z,101185.69
2022-08-02T11:02:39.054Z,101189.31
2022-08-02T11:05:11.477Z,101174.94
2022-08-02T11:07:47.416Z,101172.69
2022-08-02T11:10:35.225Z,101165.66
2022-08-02T11:13:05.806Z,101175.88
2022-08-02T11:15:52.131Z,101178.91
2022-08-02T11:18:22.087Z,101182.22
2022-08-02T11:21:05.827Z,101192.91
2022-08-02T11:23:44.662Z,101180.97
2022-08-02T11:26:33.209Z,101177.22
2022-08-02T11:29:03.467Z,101184.44
2022-08-02T11:31:39.617Z,101180.66
2022-08-02T11:34:09.895Z,101174.09
2022-08-02T11:36:46.143Z,101163.59
2022-08-02T11:39:17.782Z,101165.59
2022-08-02T11:41:50.136Z,101169.38
2022-08-02T11:44:19.236Z,101172.69
2022-08-02T11:46:55.186Z,101172.41
2022-08-02T11:49:24.435Z,101164.75
2022-08-02T11:51:57.590Z,101170.41
2022-08-02T11:54:29.161Z,101173.25
2022-08-02T11:57:10.159Z,101179.56
2022-08-02T11:59:40.106Z,101178.84
2022-08-02T12:02:09.888Z,101176.41
2022-08-02T12:04:39.478Z,101175.94
2022-08-02T12:07:09.465Z,101180.97
2022-08-02T12:09:41.374Z,101172.00
2022-08-02T12:12:10.737Z,101175.91
2022-08-02T12:14:43.620Z,101183.34
2022-08-02T12:17:30.102Z,101184.22
2022-08-02T12:19:58.783Z,101184.03
2022-08-02T12:22:28.538Z,101178.50
2022-08-02T12:24:59.042Z,101184.63
2022-08-02T12:27:32.715Z,101183.41
2022-08-02T12:30:02.958Z,101197.81
2022-08-02T12:32:31.910Z,101194.69
2022-08-02T12:35:05.282Z,101193.78
2022-08-02T12:37:34.513Z,101193.56
2022-08-02T12:40:18.298Z,101198.09
2022-08-02T12:42:52.010Z,101198.88
2022-08-02T12:45:21.153Z,101201.72
2022-08-02T12:47:51.213Z,101206.25
2022-08-02T12:50:22.317Z,101203.75
2022-08-02T12:52:51.586Z,101210.50
2022-08-02T12:55:21.771Z,101212.78
2022-08-02T12:57:56.080Z,101203.34
2022-08-02T13:00:25.965Z,101198.53
2022-08-02T13:02:54.819Z,101204.03
2022-08-02T13:05:23.700Z,101210.28
2022-08-02T13:07:53.080Z,101214.72
2022-08-02T13:10:22.638Z,101205.94
2022-08-02T13:12:51.401Z,101205.06
2022-08-02T13:15:48.957Z,101201.63
2022-08-02T13:18:11.281Z,101204.38
2022-08-02T13:20:45.358Z,101213.63
2022-08-02T13:23:21.847Z,101205.25
2022-08-02T13:25:52.757Z,101201.47
2022-08-02T13:28:22.102Z,101203.03
2022-08-02T13:30:52.166Z,101201.69
2022-08-02T13:33:21.368Z,101198.63
2022-08-02T13:35:50.806Z,101199.88
2022-08-02T13:38:24.551Z,101196.81
2022-08-02T13:41:13.611Z,101187.03
2022-08-02T13:43:52.908Z,101179.19
2022-08-02T13:46:29.280Z,101184.94
2022-08-02T13:48:59.352Z,101183.94
2022-08-02T13:51:28.294Z,101190.72
2022-08-02T13:53:57.002Z,101192.75
2022-08-02T13:56:35.586Z,101184.28
2022-08-02T13:59:54.165Z,101181.81
2022-08-02T14:01:56.597Z,101180.63
2022-08-02T14:04:26.403Z,101187.84
2022-08-02T14:06:58.883Z,101188.50
2022-08-02T14:09:28.221Z,101184.84
2022-08-02T14:11:56.999Z,101190.03
2022-08-02T14:14:25.698Z,101188.84
2022-08-02T14:16:56.183Z,101195.41
2022-08-02T14:19:25.360Z,101199.66
2022-08-02T14:21:54.064Z,101205.94
2022-08-02T14:24:41.596Z,101203.19
2022-08-02T14:27:10.453Z,101206.03
2022-08-02T14:29:39.237Z,101208.84
2022-08-02T14:32:10.161Z,101202.13
2022-08-02T14:34:39.233Z,101203.03
2022-08-02T14:37:07.917Z,101201.56
2022-08-02T14:39:42.936Z,101202.19
2022-08-02T14:42:25.873Z,101196.31
2022-08-02T14:44:54.769Z,101189.56
2022-08-02T14:47:25.223Z,101195.00
2022-08-02T14:49:54.034Z,101196.63
2022-08-02T14:52:22.986Z,101193.84
2022-08-02T14:54:51.769Z,101207.41
2022-08-02T14:57:20.469Z,101201.91
2022-08-02T14:59:49.351Z,101207.78
2022-08-02T15:02:19.372Z,101199.41
2022-08-02T15:04:49.423Z,101203.78
2022-08-02T15:07:18.381Z,101204.63
2022-08-02T15:09:47.116Z,101213.72
2022-08-02T15:12:16.087Z,101209.44
2022-08-02T15:14:45.305Z,101210.69
2022-08-02T15:17:14.333Z,101211.63
2022-08-02T15:19:58.016Z,101211.31
2022-08-02T15:22:31.057Z,101213.56
2022-08-02T15:25:00.950Z,101208.63
2022-08-02T15:27:30.090Z,101213.25
2022-08-02T15:30:01.135Z,101220.28
2022-08-02T15:32:29.886Z,101211.34
2022-08-02T15:34:58.796Z,101208.81
2022-08-02T15:37:31.054Z,101212.72
2022-08-02T15:40:01.907Z,101205.31
2022-08-02T15:42:31.076Z,101200.59
2022-08-02T15:45:00.313Z,101196.00
2022-08-02T15:47:29.318Z,101202.44
2022-08-02T15:49:58.663Z,101199.63
2022-08-02T15:52:27.666Z,101209.31
2022-08-02T15:54:57.327Z,101208.13
2022-08-02T15:57:39.176Z,101207.44
2022-08-02T16:00:15.751Z,101211.59
2022-08-02T16:02:48.191Z,101202.97
2022-08-02T16:05:18.318Z,101204.75
2022-08-02T16:07:47.528Z,101204.03
2022-08-02T16:10:16.629Z,101199.28
2022-08-02T16:12:47.187Z,101201.00
2022-08-02T16:15:15.951Z,101195.41
2022-08-02T16:17:48.698Z,101197.09
2022-08-02T16:20:23.155Z,101187.59
2022-08-02T16:22:51.851Z,101190.66
2022-08-02T16:25:20.668Z,101193.06
2022-08-02T16:27:57.595Z,101192.59
2022-08-02T16:30:35.811Z,101197.59
2022-08-02T16:33:05.253Z,101207.53
2022-08-02T16:35:34.930Z,101203.38
2022-08-02T16:38:03.626Z,101203.75
2022-08-02T16:40:34.376Z,101203.56
2022-08-02T16:43:09.011Z,101201.50
2022-08-02T16:45:38.286Z,101203.91
2022-08-02T16:48:09.131Z,101204.53
2022-08-02T16:50:38.292Z,101203.34
2022-08-02T16:53:07.894Z,101205.69
2022-08-02T16:55:37.358Z,101204.09
2022-08-02T16:58:09.743Z,101209.47
2022-08-02T17:00:38.887Z,101206.41
2022-08-02T17:03:15.574Z,101208.16
2022-08-02T17:05:55.687Z,101205.41
2022-08-02T17:08:31.663Z,101211.94
2022-08-02T17:14:01.603Z,101199.81
2022-08-02T17:16:30.826Z,101202.13
2022-08-02T17:19:00.919Z,101198.44
2022-08-02T17:21:32.564Z,101201.56
2022-08-02T17:24:07.839Z,101192.88
2022-08-02T17:26:37.833Z,101198.69
2022-08-02T17:29:15.320Z,101196.16
2022-08-02T17:32:02.497Z,101199.13
2022-08-02T17:34:36.129Z,101204.78
2022-08-02T17:37:05.598Z,101199.84
2022-08-02T17:42:25.163Z,101197.16
2022-08-02T17:45:01.147Z,101204.41
2022-08-02T17:48:03.949Z,101203.00
2022-08-02T17:50:33.476Z,101198.75
2022-08-02T17:53:02.433Z,101205.06
2022-08-02T17:55:33.201Z,101208.53
2022-08-02T17:58:02.065Z,101212.72
2022-08-02T18:00:34.353Z,101205.00
2022-08-02T18:03:06.286Z,101205.53
2022-08-02T18:08:38.800Z,101216.78
2022-08-02T18:11:10.525Z,101217.06
2022-08-02T18:13:44.172Z,101219.66
2022-08-02T18:16:22.298Z,101215.41
2022-08-02T18:18:51.121Z,101216.06
2022-08-02T18:21:22.519Z,101213.13
2022-08-02T18:23:58.738Z,101218.53
2022-08-02T18:26:28.693Z,101220.31
2022-08-02T18:28:59.367Z,101222.81
2022-08-02T18:31:28.943Z,101226.28
2022-08-02T18:34:08.963Z,101227.03
2022-08-02T18:36:47.059Z,101237.66
2022-08-02T18:39:17.453Z,101239.38
2022-08-02T18:41:47.817Z,101241.78
2022-08-02T18:44:18.661Z,101238.03
2022-08-02T18:46:49.346Z,101244.13
2022-08-02T18:49:18.801Z,101231.13
2022-08-02T18:51:49.347Z,101228.06
2022-08-02T18:54:30.609Z,101230.41
2022-08-02T18:57:00.482Z,101237.47
2022-08-02T18:59:29.318Z,101241.41
2022-08-02T19:02:06.614Z,101248.34
2022-08-02T19:04:35.594Z,101236.00
2022-08-02T19:07:08.219Z,101237.06
2022-08-02T19:09:40.200Z,101244.53
2022-08-02T19:12:11.540Z,101239.38
2022-08-02T19:14:41.182Z,101245.84
2022-08-02T19:17:53.253Z,101256.19
2022-08-02T19:19:59.678Z,101251.16
2022-08-02T19:22:30.298Z,101251.50
2022-08-02T19:25:01.446Z,101245.69
2022-08-02T19:27:32.862Z,101247.19
2022-08-02T19:30:03.613Z,101246.66
2022-08-02T19:32:42.939Z,101247.91
2022-08-02T19:35:30.855Z,101241.88
2022-08-02T19:38:09.643Z,101251.00
2022-08-02T19:40:39.964Z,101246.97
2022-08-02T19:44:27.032Z,101249.34
2022-08-02T19:45:58.170Z,101252.72
2022-08-02T19:48:28.224Z,101254.81
2022-08-02T19:50:59.477Z,101257.81
2022-08-02T19:53:49.450Z,101257.19
2022-08-02T19:56:24.868Z,101257.47
2022-08-02T19:58:57.020Z,101261.16
2022-08-02T20:01:38.855Z,101252.22
2022-08-02T20:04:13.604Z,101255.06
2022-08-02T20:09:46.950Z,101244.41
2022-08-02T20:12:16.595Z,101256.13
2022-08-02T20:14:51.279Z,101256.00
2022-08-02T20:17:21.101Z,101256.84
2022-08-02T20:19:50.267Z,101255.91
2022-08-02T20:22:21.103Z,101261.16
2022-08-02T20:24:51.275Z,101257.41
2022-08-02T20:27:23.784Z,101253.69
2022-08-02T20:29:52.789Z,101263.41
2022-08-02T20:32:24.373Z,101253.16
2022-08-02T20:34:53.398Z,101258.28
2022-08-02T20:37:59.497Z,101242.75
2022-08-02T20:40:17.295Z,101249.69
2022-08-02T20:42:48.461Z,101252.19
2022-08-02T20:45:17.647Z,101247.41
2022-08-02T20:47:49.757Z,101247.97
2022-08-02T20:50:38.149Z,101251.34
2022-08-02T20:53:07.934Z,101243.91
2022-08-02T20:55:42.810Z,101243.31
2022-08-02T20:58:12.546Z,101232.19
2022-08-02T21:00:41.655Z,101240.00
2022-08-02T21:03:11.696Z,101236.00
2022-08-02T21:05:54.958Z,101224.88
2022-08-02T21:08:25.109Z,101228.13
2022-08-02T21:10:55.653Z,101234.84
2022-08-02T21:13:26.578Z,101236.25
2022-08-02T21:16:00.504Z,101232.09
2022-08-02T21:18:33.341Z,101224.75
2022-08-02T21:21:10.249Z,101232.59
2022-08-02T21:23:44.927Z,101232.19
2022-08-02T21:26:19.872Z,101228.19
2022-08-02T21:28:55.284Z,101221.56
2022-08-02T21:31:24.185Z,101225.47
2022-08-02T21:34:00.482Z,101224.88
2022-08-02T21:36:31.885Z,101220.91
2022-08-02T21:39:04.703Z,101219.69
2022-08-02T21:41:38.900Z,101224.56
2022-08-02T21:44:15.800Z,101219.41
2022-08-02T21:46:45.752Z,101219.75
2022-08-02T21:49:14.938Z,101215.66
2022-08-02T21:51:49.280Z,101224.16
2022-08-02T21:54:20.924Z,101228.09
2022-08-02T21:57:15.570Z,101227.69
2022-08-02T21:59:46.364Z,101227.25
2022-08-02T22:02:15.559Z,101228.53
2022-08-02T22:04:47.631Z,101237.97
2022-08-02T22:07:17.772Z,101229.31
2022-08-02T22:09:53.573Z,101232.44
2022-08-02T22:12:25.866Z,101227.38
2022-08-02T22:14:56.385Z,101239.25
2022-08-02T22:17:46.782Z,101231.44
2022-08-02T22:20:19.955Z,101227.97
2022-08-02T22:22:51.355Z,101228.28
2022-08-02T22:25:36.022Z,101237.56
2022-08-02T22:28:35.762Z,101230.69
2022-08-02T22:34:04.529Z,101233.75
2022-08-02T22:36:43.219Z,101243.00
2022-08-02T22:39:19.387Z,101238.75
2022-08-02T22:44:39.000Z,101244.50
2022-08-02T22:47:14.628Z,101245.59
2022-08-02T22:49:54.307Z,101241.22
2022-08-02T22:52:24.861Z,101241.41
2022-08-02T22:54:54.808Z,101242.41
2022-08-02T22:57:25.018Z,101236.22
2022-08-02T22:58:39.641Z,101203.88
2022-08-02T22:58:43.168Z,101215.31
2022-08-02T22:59:07.696Z,101250.50
2022-08-02T22:59:10.288Z,101237.94
2022-08-02T23:00:01.420Z,101242.53
2022-08-02T23:02:30.293Z,101245.41
2022-08-02T23:04:59.124Z,101243.72
2022-08-02T23:07:28.428Z,101241.19
2022-08-02T23:10:07.881Z,101248.53
2022-08-02T23:12:36.778Z,101248.69
2022-08-02T23:15:07.498Z,101245.28
2022-08-02T23:17:53.668Z,101239.09
2022-08-02T23:20:22.748Z,101237.34
2022-08-02T23:22:51.654Z,101238.38
2022-08-02T23:25:20.455Z,101236.63
2022-08-02T23:27:51.303Z,101240.31
2022-08-02T23:30:21.814Z,101237.81
2022-08-02T23:32:50.724Z,101232.47
2022-08-02T23:35:19.515Z,101236.22
2022-08-02T23:38:00.301Z,101234.44
2022-08-02T23:40:40.689Z,101227.47
2022-08-02T23:43:13.892Z,101221.28
2022-08-02T23:45:46.631Z,101220.50
2022-08-02T23:48:15.718Z,101213.34
2022-08-02T23:50:44.458Z,101221.50
2022-08-02T23:53:13.583Z,101214.41
2022-08-02T23:55:42.373Z,101220.69
2022-08-02T23:58:12.606Z,101206.50
